sensor_id;sensor_type;location;lat;lon;timestamp;P1;durP1;ratioP1;P2;durP2;ratioP2
13057;SDS011;6595;49.578;11.012;2023-05-10T18:30:32;4.5;;;3.4;;
13057;SDS011;6595;49.578;11.012;2023-05-10T18:36:24;6.2;;;3.3;;
13057;SDS011;6595;49.578;11.012;2023-05-10T18:38:23;4.8;;;3.1;;
13057;SDS011;6595;49.578;11.012;2023-05-10T18:40:24;4.6;;;3.5;;
13057;SDS011;6595;49.578;11.012;2023-05-10T18:42:23;4.2;;;3.1;;
13057;SDS011;6595;49.578;11.012;2023-05-10T18:44:23;4.2;;;3.1;;
13057;SDS011;6595;49.578;11.012;2023-05-10T18:46:23;5.0;;;3.3;;
13057;SDS011;6595;49.578;11.012;2023-05-10T18:48:23;4.9;;;3.5;;
13057;SDS011;6595;49.578;11.012;2023-05-10T18:50:24;4.9;;;3.3;;
13057;SDS011;6595;49.578;11.012;2023-05-10T18:52:23;4.9;;;3.3;;
13057;SDS011;6595;49.578;11.012;2023-05-10T18:54:23;5.4;;;3.5;;
13057;SDS011;6595;49.578;11.012;2023-05-10T18:56:23;5.4;;;3.5;;
13057;SDS011;6595;49.578;11.012;2023-05-10T18:58:23;4.5;;;3.3;;
13057;SDS011;6595;49.578;11.012;2023-05-10T19:00:24;4.5;;;3.3;;
13057;SDS011;6595;49.578;11.012;2023-05-10T19:02:23;5.1;;;3.9;;
13057;SDS011;6595;49.578;11.012;2023-05-10T19:04:23;5.8;;;3.7;;
13057;SDS011;6595;49.578;11.012;2023-05-10T19:06:24;6.0;;;3.9;;
13057;SDS011;6595;49.578;11.012;2023-05-10T19:08:23;6.0;;;3.9;;
13057;SDS011;6595;49.578;11.012;2023-05-10T19:10:23;4.9;;;4.2;;
13057;SDS011;6595;49.578;11.012;2023-05-10T19:12:23;5.6;;;3.9;;
13057;SDS011;6595;49.578;11.012;2023-05-10T19:14:23;6.1;;;4.1;;
13057;SDS011;6595;49.578;11.012;2023-05-10T19:16:23;5.1;;;4.1;;
13057;SDS011;6595;49.578;11.012;2023-05-10T19:18:23;6.4;;;4.5;;
13057;SDS011;6595;49.578;11.012;2023-05-10T19:20:24;6.8;;;4.5;;
13057;SDS011;6595;49.578;11.012;2023-05-10T19:22:23;6.8;;;4.5;;
13057;SDS011;6595;49.578;11.012;2023-05-10T19:24:24;6.3;;;4.4;;
13057;SDS011;6595;49.578;11.012;2023-05-10T19:26:23;5.6;;;4.5;;
13057;SDS011;6595;49.578;11.012;2023-05-10T19:28:24;7.5;;;5.1;;
13057;SDS011;6595;49.578;11.012;2023-05-10T19:30:23;5.9;;;4.1;;
13057;SDS011;6595;49.578;11.012;2023-05-10T19:32:23;5.9;;;4.1;;
13057;SDS011;6595;49.578;11.012;2023-05-10T19:34:24;6.4;;;4.7;;
13057;SDS011;6595;49.578;11.012;2023-05-10T19:36:23;5.5;;;4.7;;
13057;SDS011;6595;49.578;11.012;2023-05-10T19:38:24;6.0;;;4.5;;
13057;SDS011;6595;49.578;11.012;2023-05-10T19:40:23;6.0;;;4.5;;
13057;SDS011;6595;49.578;11.012;2023-05-10T19:42:24;7.8;;;4.9;;
13057;SDS011;6595;49.578;11.012;2023-05-10T19:44:23;8.2;;;4.8;;
13057;SDS011;6595;49.578;11.012;2023-05-10T19:46:24;6.2;;;4.8;;
13057;SDS011;6595;49.578;11.012;2023-05-10T19:48:23;6.7;;;5.1;;
13057;SDS011;6595;49.578;11.012;2023-05-10T19:50:23;6.7;;;5.1;;
13057;SDS011;6595;49.578;11.012;2023-05-10T19:52:24;7.8;;;5.4;;
13057;SDS011;6595;49.578;11.012;2023-05-10T19:54:23;7.4;;;5.1;;
13057;SDS011;6595;49.578;11.012;2023-05-10T19:56:23;7.4;;;5.4;;
13057;SDS011;6595;49.578;11.012;2023-05-10T19:58:23;5.6;;;4.9;;
13057;SDS011;6595;49.578;11.012;2023-05-10T20:00:23;5.6;;;4.9;;
13057;SDS011;6595;49.578;11.012;2023-05-10T20:02:24;8.1;;;5.1;;
13057;SDS011;6595;49.578;11.012;2023-05-10T20:04:23;7.5;;;5.5;;
13057;SDS011;6595;49.578;11.012;2023-05-10T20:06:23;7.4;;;5.1;;
13057;SDS011;6595;49.578;11.012;2023-05-10T20:08:24;7.4;;;5.1;;
13057;SDS011;6595;49.578;11.012;2023-05-10T20:10:23;7.5;;;5.4;;
13057;SDS011;6595;49.578;11.012;2023-05-10T20:12:24;7.1;;;5.5;;
13057;SDS011;6595;49.578;11.012;2023-05-10T20:14:23;6.7;;;5.1;;
13057;SDS011;6595;49.578;11.012;2023-05-10T20:16:24;6.6;;;4.9;;
13057;SDS011;6595;49.578;11.012;2023-05-10T20:18:23;6.6;;;4.9;;
13057;SDS011;6595;49.578;11.012;2023-05-10T20:20:23;7.3;;;4.9;;
13057;SDS011;6595;49.578;11.012;2023-05-10T20:22:24;7.7;;;6.0;;
13057;SDS011;6595;49.578;11.012;2023-05-10T20:24:23;8.5;;;5.7;;
13057;SDS011;6595;49.578;11.012;2023-05-10T20:26:23;8.5;;;5.7;;
13057;SDS011;6595;49.578;11.012;2023-05-10T20:28:24;7.8;;;5.2;;
13057;SDS011;6595;49.578;11.012;2023-05-10T20:30:23;7.2;;;5.4;;
13057;SDS011;6595;49.578;11.012;2023-05-10T20:32:24;9.3;;;5.8;;
13057;SDS011;6595;49.578;11.012;2023-05-10T20:34:23;8.3;;;5.8;;
13057;SDS011;6595;49.578;11.012;2023-05-10T20:36:23;7.9;;;5.2;;
13057;SDS011;6595;49.578;11.012;2023-05-10T20:38:24;7.9;;;5.2;;
13057;SDS011;6595;49.578;11.012;2023-05-10T20:40:23;8.4;;;5.6;;
13057;SDS011;6595;49.578;11.012;2023-05-10T20:42:23;7.4;;;5.5;;
13057;SDS011;6595;49.578;11.012;2023-05-10T20:44:23;10.1;;;5.4;;
13057;SDS011;6595;49.578;11.012;2023-05-10T20:46:23;9.9;;;5.9;;
13057;SDS011;6595;49.578;11.012;2023-05-10T20:48:24;9.9;;;5.9;;
13057;SDS011;6595;49.578;11.012;2023-05-10T20:50:23;9.9;;;5.9;;
13057;SDS011;6595;49.578;11.012;2023-05-10T20:52:23;8.3;;;5.7;;
13057;SDS011;6595;49.578;11.012;2023-05-10T20:54:24;8.3;;;5.7;;
13057;SDS011;6595;49.578;11.012;2023-05-10T20:56:23;11.6;;;6.1;;
13057;SDS011;6595;49.578;11.012;2023-05-10T20:58:23;11.6;;;6.1;;
13057;SDS011;6595;49.578;11.012;2023-05-10T21:00:24;9.8;;;6.5;;
13057;SDS011;6595;49.578;11.012;2023-05-10T21:02:23;10.4;;;6.2;;
13057;SDS011;6595;49.578;11.012;2023-05-10T21:04:24;20.1;;;12.7;;
13057;SDS011;6595;49.578;11.012;2023-05-10T21:06:23;9.5;;;6.3;;
13057;SDS011;6595;49.578;11.012;2023-05-10T21:08:23;9.5;;;6.3;;
13057;SDS011;6595;49.578;11.012;2023-05-10T21:10:24;10.8;;;6.5;;
13057;SDS011;6595;49.578;11.012;2023-05-10T21:12:23;12.9;;;7.5;;
13057;SDS011;6595;49.578;11.012;2023-05-10T21:14:24;8.7;;;6.0;;
13057;SDS011;6595;49.578;11.012;2023-05-10T21:16:23;8.7;;;6.0;;
13057;SDS011;6595;49.578;11.012;2023-05-10T21:18:23;8.4;;;6.0;;
13057;SDS011;6595;49.578;11.012;2023-05-10T21:20:23;8.6;;;6.1;;
13057;SDS011;6595;49.578;11.012;2023-05-10T21:22:23;8.6;;;6.1;;
13057;SDS011;6595;49.578;11.012;2023-05-10T21:24:24;9.1;;;6.2;;
13057;SDS011;6595;49.578;11.012;2023-05-10T21:26:23;10.6;;;6.1;;
13057;SDS011;6595;49.578;11.012;2023-05-10T21:28:23;9.4;;;5.7;;
13057;SDS011;6595;49.578;11.012;2023-05-10T21:30:23;13.7;;;8.9;;
13057;SDS011;6595;49.578;11.012;2023-05-10T21:32:23;9.1;;;6.4;;
13057;SDS011;6595;49.578;11.012;2023-05-10T21:34:24;16.8;;;10.2;;
13057;SDS011;6595;49.578;11.012;2023-05-10T21:36:23;10.6;;;6.7;;
13057;SDS011;6595;49.578;11.012;2023-05-10T21:38:25;10.6;;;6.7;;
13057;SDS011;6595;49.578;11.012;2023-05-10T21:40:23;11.5;;;7.3;;
13057;SDS011;6595;49.578;11.012;2023-05-10T21:42:23;16.1;;;9.4;;
13057;SDS011;6595;49.578;11.012;2023-05-10T21:44:24;11.4;;;7.1;;
13057;SDS011;6595;49.578;11.012;2023-05-10T21:46:23;11.4;;;7.1;;
13057;SDS011;6595;49.578;11.012;2023-05-10T21:48:23;8.8;;;5.3;;
13057;SDS011;6595;49.578;11.012;2023-05-10T21:50:24;8.8;;;6.0;;
13057;SDS011;6595;49.578;11.012;2023-05-10T21:52:23;9.8;;;5.8;;
13057;SDS011;6595;49.578;11.012;2023-05-10T21:54:24;7.5;;;5.6;;
13057;SDS011;6595;49.578;11.012;2023-05-10T21:56:23;7.5;;;5.6;;
13057;SDS011;6595;49.578;11.012;2023-05-10T21:58:24;9.3;;;6.3;;
13057;SDS011;6595;49.578;11.012;2023-05-10T22:00:23;8.1;;;5.5;;
13057;SDS011;6595;49.578;11.012;2023-05-10T22:02:23;9.0;;;5.9;;
13057;SDS011;6595;49.578;11.012;2023-05-10T22:04:24;9.0;;;5.9;;
13057;SDS011;6595;49.578;11.012;2023-05-10T22:06:23;7.6;;;5.1;;
13057;SDS011;6595;49.578;11.012;2023-05-10T22:08:24;9.1;;;5.9;;
13057;SDS011;6595;49.578;11.012;2023-05-10T22:10:23;9.9;;;6.1;;
13057;SDS011;6595;49.578;11.012;2023-05-10T22:12:23;8.9;;;5.8;;
13057;SDS011;6595;49.578;11.012;2023-05-10T22:14:23;8.9;;;5.8;;
13057;SDS011;6595;49.578;11.012;2023-05-10T22:16:23;9.4;;;5.8;;
13057;SDS011;6595;49.578;11.012;2023-05-10T22:18:24;8.3;;;5.9;;
13057;SDS011;6595;49.578;11.012;2023-05-10T22:20:23;8.3;;;5.7;;
13057;SDS011;6595;49.578;11.012;2023-05-10T22:22:23;7.5;;;5.5;;
13057;SDS011;6595;49.578;11.012;2023-05-10T22:24:23;7.5;;;5.5;;
13057;SDS011;6595;49.578;11.012;2023-05-10T22:26:23;8.1;;;5.4;;
13057;SDS011;6595;49.578;11.012;2023-05-10T22:28:24;7.8;;;5.8;;
13057;SDS011;6595;49.578;11.012;2023-05-10T22:30:23;8.7;;;5.7;;
13057;SDS011;6595;49.578;11.012;2023-05-10T22:32:24;7.3;;;5.7;;
13057;SDS011;6595;49.578;11.012;2023-05-10T22:34:23;7.3;;;5.7;;
13057;SDS011;6595;49.578;11.012;2023-05-10T22:36:23;8.7;;;5.8;;
13057;SDS011;6595;49.578;11.012;2023-05-10T22:38:24;8.2;;;5.8;;
13057;SDS011;6595;49.578;11.012;2023-05-10T22:40:23;8.2;;;5.8;;
13057;SDS011;6595;49.578;11.012;2023-05-10T22:42:23;8.2;;;5.3;;
13057;SDS011;6595;49.578;11.012;2023-05-10T22:44:23;8.3;;;6.0;;
13057;SDS011;6595;49.578;11.012;2023-05-10T22:46:23;8.2;;;6.0;;
13057;SDS011;6595;49.578;11.012;2023-05-10T22:48:24;8.6;;;5.6;;
13057;SDS011;6595;49.578;11.012;2023-05-10T22:50:23;8.6;;;5.6;;
13057;SDS011;6595;49.578;11.012;2023-05-10T22:52:24;8.5;;;6.0;;
13057;SDS011;6595;49.578;11.012;2023-05-10T22:54:23;8.2;;;5.6;;
13057;SDS011;6595;49.578;11.012;2023-05-10T22:56:23;9.1;;;5.7;;
13057;SDS011;6595;49.578;11.012;2023-05-10T22:58:24;10.5;;;5.7;;
13057;SDS011;6595;49.578;11.012;2023-05-10T23:00:23;7.7;;;5.2;;
13057;SDS011;6595;49.578;11.012;2023-05-10T23:02:24;7.7;;;5.2;;
13057;SDS011;6595;49.578;11.012;2023-05-10T23:04:23;8.9;;;5.4;;
13057;SDS011;6595;49.578;11.012;2023-05-10T23:06:23;9.0;;;5.4;;
13057;SDS011;6595;49.578;11.012;2023-05-10T23:08:23;6.5;;;4.7;;
13057;SDS011;6595;49.578;11.012;2023-05-10T23:10:23;7.2;;;5.2;;
13057;SDS011;6595;49.578;11.012;2023-05-10T23:12:24;8.3;;;5.2;;
13057;SDS011;6595;49.578;11.012;2023-05-10T23:14:23;8.3;;;5.2;;
13057;SDS011;6595;49.578;11.012;2023-05-10T23:16:24;8.2;;;5.2;;
13057;SDS011;6595;49.578;11.012;2023-05-10T23:18:23;7.8;;;5.3;;
13057;SDS011;6595;49.578;11.012;2023-05-10T23:20:23;8.3;;;5.0;;
13057;SDS011;6595;49.578;11.012;2023-05-10T23:22:24;8.3;;;5.0;;
13057;SDS011;6595;49.578;11.012;2023-05-10T23:24:23;7.3;;;4.9;;
13057;SDS011;6595;49.578;11.012;2023-05-10T23:26:24;7.3;;;4.8;;
13057;SDS011;6595;49.578;11.012;2023-05-10T23:28:23;7.0;;;4.8;;
13057;SDS011;6595;49.578;11.012;2023-05-10T23:30:23;6.2;;;4.6;;
13057;SDS011;6595;49.578;11.012;2023-05-10T23:32:24;6.2;;;4.6;;
13057;SDS011;6595;49.578;11.012;2023-05-10T23:34:23;7.8;;;4.5;;
13057;SDS011;6595;49.578;11.012;2023-05-10T23:36:23;6.9;;;4.8;;
13057;SDS011;6595;49.578;11.012;2023-05-10T23:38:23;7.9;;;4.2;;
13057;SDS011;6595;49.578;11.012;2023-05-10T23:40:23;4.8;;;4.2;;
13057;SDS011;6595;49.578;11.012;2023-05-10T23:42:24;4.8;;;4.2;;
13057;SDS011;6595;49.578;11.012;2023-05-10T23:44:23;5.7;;;4.1;;
13057;SDS011;6595;49.578;11.012;2023-05-10T23:46:23;7.9;;;4.9;;
13057;SDS011;6595;49.578;11.012;2023-05-10T23:48:24;8.7;;;4.6;;
13057;SDS011;6595;49.578;11.012;2023-05-10T23:50:23;8.7;;;4.6;;
13057;SDS011;6595;49.578;11.012;2023-05-10T23:52:24;5.9;;;4.0;;
13057;SDS011;6595;49.578;11.012;2023-05-10T23:54:23;5.7;;;4.0;;
13057;SDS011;6595;49.578;11.012;2023-05-10T23:56:23;7.1;;;4.4;;
13057;SDS011;6595;49.578;11.012;2023-05-10T23:58:23;6.7;;;5.2;;
